Time;durP1;ratioP1;P1;durP2;ratioP2;P2;SDS_P1;SDS_P2;PMS_P1;PMS_P2;Temp;Humidity;BMP_temperature;BMP_pressure;BME280_temperature;BME280_humidity;BME280_pressure;Samples;Min_cycle;Max_cycle;Signal;HPM_P1;HPM_P2
2021/08/12 00:01:29;;;;;;;4.85;3.28;;;12.00;99.90;;;10.61;100.00;102369.63;5032918;28;20090;-78
2021/08/12 00:03:55;;;;;;;4.50;1.30;;;12.00;99.90;;;10.59;100.00;102703.31;5032821;28;20497;-80
2021/08/12 00:06:21;;;;;;;2.13;1.40;;;11.90;99.90;;;10.55;100.00;102581.31;5023471;28;20159;-78
2021/08/12 00:08:47;;;;;;;3.67;1.75;;;11.90;99.90;;;10.56;100.00;102526.88;5030396;28;20150;-78
2021/08/12 00:11:13;;;;;;;2.58;1.70;;;11.90;99.90;;;10.54;100.00;102523.38;5026008;28;24999;-78
2021/08/12 00:13:39;;;;;;;4.13;2.17;;;11.90;99.90;;;10.54;100.00;102478.59;5032596;28;20017;-78
2021/08/12 00:16:06;;;;;;;10.38;4.20;;;11.90;99.90;;;10.52;100.00;102462.84;5032762;28;20090;-77
2021/08/12 00:18:33;;;;;;;8.57;5.32;;;11.90;99.90;;;10.51;100.00;102458.47;5046862;28;20021;-77
2021/08/12 00:20:59;;;;;;;12.95;5.80;;;11.90;99.90;;;10.53;100.00;102461.94;5035528;28;20112;-78
2021/08/12 00:23:27;;;;;;;13.90;7.38;;;11.90;99.90;;;10.55;100.00;102459.28;5024664;28;20037;-77
2021/08/12 00:25:56;;;;;;;14.35;6.82;;;11.90;99.90;;;10.60;100.00;102483.75;5031193;28;20075;-77
2021/08/12 00:28:23;;;;;;;12.80;7.75;;;12.00;99.90;;;10.69;100.00;102544.22;5030655;28;20116;-79
2021/08/12 00:30:49;;;;;;;14.93;8.90;;;12.10;99.90;;;10.74;100.00;102592.41;5007043;28;20037;-77
2021/08/12 00:33:15;;;;;;;14.85;8.55;;;12.10;99.90;;;10.72;100.00;102607.38;5006006;28;20049;-77
2021/08/12 00:35:40;;;;;;;12.60;7.72;;;12.10;99.90;;;10.72;100.00;102627.59;5032092;28;20033;-79
2021/08/12 00:38:07;;;;;;;14.52;8.18;;;12.10;99.90;;;10.71;100.00;102616.16;5029663;28;20036;-81
2021/08/12 00:40:33;;;;;;;15.02;9.85;;;12.10;99.90;;;10.78;100.00;102638.03;5025125;28;20071;-77
2021/08/12 00:42:59;;;;;;;21.20;11.20;;;12.20;99.90;;;10.90;100.00;102647.47;5034130;28;20071;-77
2021/08/12 00:45:25;;;;;;;19.42;11.73;;;12.30;99.90;;;10.94;100.00;102670.25;5031498;28;20091;-78
2021/08/12 00:47:51;;;;;;;20.80;11.35;;;12.30;99.90;;;10.96;100.00;102668.47;5024279;28;20051;-78
2021/08/12 00:50:19;;;;;;;19.10;10.93;;;12.30;99.90;;;10.98;100.00;102708.84;5032170;28;20100;-77
2021/08/12 00:52:45;;;;;;;19.52;10.45;;;12.30;99.90;;;10.97;100.00;102696.56;5023215;28;20071;-79
2021/08/12 00:55:11;;;;;;;14.55;9.32;;;12.30;99.90;;;10.95;100.00;102711.53;5015139;28;20469;-79
2021/08/12 00:57:37;;;;;;;18.05;9.77;;;12.30;99.90;;;10.92;100.00;102724.75;5022344;28;20063;-77
2021/08/12 01:00:06;;;;;;;12.63;8.45;;;12.30;99.90;;;10.90;100.00;102745.84;5033173;28;20094;-77
2021/08/12 01:02:32;;;;;;;41.97;3.88;;;12.20;99.90;;;10.67;100.00;102743.59;5023672;28;20078;-77
2021/08/12 01:04:58;;;;;;;23.83;2.40;;;12.00;99.90;;;10.43;100.00;102705.28;5030257;28;20063;-78
2021/08/12 01:07:53;;;;;;;5.32;4.18;;;11.80;99.90;;;10.27;100.00;102699.34;5038828;28;20067;-77
2021/08/12 01:10:29;;;;;;;4.28;3.10;;;11.70;99.90;;;10.18;100.00;102712.66;5022864;28;20065;-77
2021/08/12 01:13:27;;;;;;;4.35;2.80;;;11.50;99.90;;;10.13;100.00;102748.66;5024761;28;20599;-77
2021/08/12 01:15:59;;;;;;;4.88;3.85;;;11.50;99.90;;;10.14;100.00;102810.97;5022856;28;20401;-77
2021/08/12 01:19:00;;;;;;;4.43;3.60;;;11.60;99.90;;;10.14;100.00;102848.69;5013151;28;20040;-78
2021/08/12 01:22:05;;;;;;;7.82;5.07;;;11.60;99.90;;;10.18;100.00;102903.06;5031037;28;20446;-77
2021/08/12 01:24:39;;;;;;;15.13;7.70;;;11.60;99.90;;;10.20;100.00;102879.34;5029871;28;20071;-78
2021/08/12 01:27:13;;;;;;;7.05;5.18;;;11.60;99.90;;;10.25;100.00;103053.94;5015134;28;20624;-77
2021/08/12 01:30:05;;;;;;;13.70;7.90;;;11.60;99.90;;;10.28;100.00;102924.91;5022240;28;20044;-77
2021/08/12 01:33:09;;;;;;;6.85;4.80;;;11.60;99.90;;;10.19;100.00;102946.03;5030810;28;20025;-79
2021/08/12 01:35:38;;;;;;;7.85;4.78;;;11.50;99.90;;;10.03;100.00;102980.41;4964476;28;20093;-78
2021/08/12 01:38:13;;;;;;;5.75;4.18;;;11.40;99.90;;;10.00;100.00;103042.72;5022569;28;20041;-77
2021/08/12 01:40:40;;;;;;;11.55;5.90;;;11.40;99.90;;;9.91;100.00;103063.84;5021800;28;20021;-77
2021/08/12 01:43:14;;;;;;;8.15;5.55;;;11.30;99.90;;;9.90;100.00;103015.59;5031229;28;20427;-78
2021/08/12 01:45:41;;;;;;;12.13;5.80;;;11.30;99.90;;;9.90;100.00;103049.81;5022662;28;20124;-77
2021/08/12 01:48:08;;;;;;;11.25;5.45;;;11.30;99.90;;;9.91;100.00;103048.06;5030642;28;20573;-77
2021/08/12 01:50:35;;;;;;;10.18;5.70;;;11.30;99.90;;;9.95;100.00;103073.47;5046955;28;20064;-77
2021/08/12 01:53:02;;;;;;;10.80;5.88;;;11.30;99.90;;;10.01;100.00;103089.22;5024348;28;20108;-77
2021/08/12 01:55:32;;;;;;;16.27;9.27;;;11.40;99.90;;;10.09;100.00;103107.63;5030264;28;20435;-77
2021/08/12 01:58:00;;;;;;;16.65;9.93;;;11.50;99.90;;;10.14;100.00;103106.69;5030872;28;20067;-77
2021/08/12 02:00:29;;;;;;;16.88;9.80;;;11.50;99.90;;;10.17;100.00;103175.13;5013706;28;20523;-77
2021/08/12 02:02:58;;;;;;;18.98;11.13;;;11.50;99.90;;;10.16;100.00;103144.41;5030137;28;20078;-79
2021/08/12 02:05:26;;;;;;;18.27;10.55;;;11.60;99.90;;;10.17;100.00;103108.41;5030996;28;20040;-78
2021/08/12 02:07:52;;;;;;;21.45;12.07;;;11.60;99.90;;;10.20;100.00;103125.06;5006791;28;20021;-78
2021/08/12 02:10:19;;;;;;;18.38;10.27;;;11.60;99.90;;;10.24;100.00;103139.09;5039766;28;20519;-80
2021/08/12 02:12:46;;;;;;;15.93;9.88;;;11.60;99.90;;;10.23;100.00;103134.72;5015355;28;20477;-77
2021/08/12 02:15:13;;;;;;;16.50;9.18;;;11.60;99.90;;;10.20;100.00;103253.22;5031213;28;20063;-78
2021/08/12 02:17:40;;;;;;;15.20;9.27;;;11.60;99.90;;;10.19;100.00;103180.38;5032844;28;20041;-81
2021/08/12 02:20:14;;;;;;;10.55;7.35;;;12.60;99.90;;;10.12;100.00;103320.84;5032945;28;20075;-78
2021/08/12 02:23:05;;;;;;;12.63;6.32;;;11.50;99.90;;;10.02;100.00;103328.75;5023860;28;20075;-78
2021/08/12 02:25:38;;;;;;;11.02;6.43;;;11.40;99.90;;;9.93;100.00;103348.94;5004243;28;20056;-78
2021/08/12 02:28:09;;;;;;;14.10;5.63;;;11.30;99.90;;;9.84;100.00;103449.84;5032198;28;20029;-78
2021/08/12 02:30:40;;;;;;;9.23;6.03;;;11.20;99.90;;;9.82;100.00;103246.34;5010780;28;20064;-79
2021/08/12 02:33:14;;;;;;;9.88;6.60;;;11.20;99.90;;;9.75;100.00;103300.75;5020158;28;20032;-80
2021/08/12 02:35:41;;;;;;;14.85;7.10;;;11.10;99.90;;;9.70;100.00;103268.31;5016847;28;20632;-78
2021/08/12 02:38:13;;;;;;;12.85;7.68;;;11.10;99.90;;;9.62;100.00;103299.88;5023076;28;20124;-79
2021/08/12 02:40:40;;;;;;;17.90;8.95;;;11.10;99.90;;;9.68;100.00;103327.09;5030428;28;20099;-78
2021/08/12 02:43:07;;;;;;;15.00;8.90;;;11.10;99.90;;;9.76;100.00;103384.09;5030592;28;20067;-77
2021/08/12 02:45:34;;;;;;;16.08;8.60;;;11.20;99.90;;;9.88;100.00;103409.50;5014696;28;20036;-78
2021/08/12 02:48:02;;;;;;;11.02;6.68;;;11.40;99.90;;;10.06;100.00;103458.59;5015096;28;20415;-77
2021/08/12 02:50:30;;;;;;;13.40;7.18;;;11.50;99.90;;;10.13;100.00;103369.94;5023816;28;20087;-77
2021/08/12 02:52:57;;;;;;;12.88;6.72;;;11.50;99.90;;;10.11;100.00;103448.06;5014182;28;20136;-77
2021/08/12 02:55:26;;;;;;;13.65;7.60;;;11.50;99.90;;;10.08;100.00;103477.91;5022121;28;20071;-80
2021/08/12 02:57:52;;;;;;;10.05;6.70;;;11.40;99.90;;;9.99;100.00;103405.09;5013206;28;20035;-78
2021/08/12 03:00:19;;;;;;;12.00;7.75;;;11.30;99.90;;;9.89;100.00;103461.25;5007733;28;20414;-77
2021/08/12 03:02:50;;;;;;;17.30;6.30;;;11.30;99.90;;;9.83;100.00;103464.75;5034130;28;20070;-78
2021/08/12 03:05:16;;;;;;;52.00;4.25;;;11.10;99.90;;;9.52;100.00;103444.56;5048623;28;20074;-77
2021/08/12 03:07:47;;;;;;;3.92;2.83;;;11.00;99.90;;;9.35;100.00;103460.31;5033164;28;20029;-77
2021/08/12 03:10:19;;;;;;;3.75;3.22;;;10.80;99.90;;;9.26;100.00;103541.81;5042859;28;20463;-77
2021/08/12 03:12:49;;;;;;;3.33;2.70;;;10.70;99.90;;;9.20;100.00;103666.22;5025285;28;20029;-77
2021/08/12 03:15:17;;;;;;;3.47;2.80;;;10.60;99.90;;;9.17;100.00;103611.00;5035426;28;20070;-79
2021/08/12 03:17:43;;;;;;;4.43;3.42;;;10.60;99.90;;;9.15;100.00;103626.75;5032171;28;20667;-78
2021/08/12 03:20:10;;;;;;;6.45;4.70;;;10.60;99.90;;;9.16;100.00;103617.13;5033587;28;20041;-78
2021/08/12 03:22:36;;;;;;;5.57;3.58;;;10.60;99.90;;;9.20;100.00;103651.34;5035038;28;20059;-80
2021/08/12 03:25:03;;;;;;;8.70;5.82;;;10.70;99.90;;;9.18;100.00;103650.44;5033179;28;20059;-79
2021/08/12 03:27:29;;;;;;;12.55;6.10;;;10.70;99.90;;;9.30;100.00;103710.09;5033793;28;20067;-78
2021/08/12 03:29:55;;;;;;;10.07;7.38;;;10.80;99.90;;;9.45;100.00;103654.09;5033486;28;20385;-77
2021/08/12 03:32:21;;;;;;;13.15;8.35;;;11.00;99.90;;;9.62;100.00;103733.97;5033398;28;20047;-78
2021/08/12 03:34:47;;;;;;;14.68;8.95;;;11.10;99.90;;;9.83;100.00;103742.84;5040950;28;20054;-77
2021/08/12 03:37:14;;;;;;;19.33;8.15;;;11.20;99.90;;;9.89;100.00;103849.91;5025960;28;20523;-77
2021/08/12 03:39:41;;;;;;;10.73;4.07;;;11.20;99.90;;;9.74;100.00;103822.63;5035401;28;20013;-78
2021/08/12 03:42:07;;;;;;;10.40;2.67;;;11.10;99.90;;;9.54;100.00;103887.38;5006241;28;20429;-79
2021/08/12 03:44:33;;;;;;;5.18;2.55;;;10.90;99.90;;;9.39;100.00;103893.38;5046886;28;20075;-77
2021/08/12 03:46:59;;;;;;;2.63;1.73;;;10.80;99.90;;;9.31;100.00;103889.78;5032822;28;20051;-78
2021/08/12 03:49:25;;;;;;;8.65;1.80;;;10.70;99.90;;;9.21;100.00;103908.13;5023579;28;20068;-79
2021/08/12 03:51:51;;;;;;;2.75;1.20;;;10.60;99.90;;;9.09;100.00;103904.47;5033321;28;20029;-77
2021/08/12 03:54:17;;;;;;;4.07;0.90;;;10.60;99.90;;;9.10;100.00;103943.94;5032929;28;20048;-77
2021/08/12 03:56:43;;;;;;;4.38;1.20;;;10.60;99.90;;;9.10;100.00;103967.59;5015014;28;20088;-78
2021/08/12 03:59:12;;;;;;;2.60;1.45;;;10.50;99.90;;;9.08;100.00;104011.38;5032731;28;24918;-78
2021/08/12 04:01:38;;;;;;;2.25;1.60;;;10.60;99.90;;;9.13;100.00;104014.06;5048223;28;20029;-78
2021/08/12 04:04:04;;;;;;;3.20;1.73;;;10.60;99.90;;;9.14;100.00;103992.19;5029986;28;20594;-78
2021/08/12 04:06:30;;;;;;;4.03;2.15;;;10.60;99.90;;;9.18;100.00;104052.72;5033319;28;20113;-78
2021/08/12 04:08:56;;;;;;;6.25;2.13;;;10.70;99.90;;;9.22;100.00;104111.44;5023150;28;20104;-78
2021/08/12 04:11:22;;;;;;;5.72;2.28;;;10.70;99.90;;;9.27;100.00;104317.53;5035067;28;20047;-78
2021/08/12 04:13:48;;;;;;;9.13;2.28;;;10.70;99.90;;;9.29;100.00;104002.88;5032823;28;20186;-77
2021/08/12 04:16:14;;;;;;;4.13;1.60;;;10.70;99.90;;;9.19;100.00;103896.69;5024557;28;20067;-77
2021/08/12 04:18:40;;;;;;;0.77;0.60;;;10.70;99.90;;;9.15;100.00;103951.88;5024030;28;20029;-78
2021/08/12 04:21:06;;;;;;;2.30;1.10;;;10.60;99.90;;;9.02;100.00;103941.22;5033381;28;20378;-78
2021/08/12 04:23:33;;;;;;;3.65;0.80;;;10.60;99.90;;;9.02;100.00;103956.97;5031599;28;20572;-77
2021/08/12 04:25:59;;;;;;;1.63;1.00;;;10.60;99.90;;;9.12;100.00;104039.47;5016404;28;20130;-77
2021/08/12 04:28:25;;;;;;;3.33;1.05;;;10.80;99.90;;;9.44;100.00;104102.13;5014272;28;20030;-78
2021/08/12 04:30:51;;;;;;;1.27;0.80;;;11.40;99.90;;;9.99;100.00;104193.97;5022700;28;23909;-77
2021/08/12 04:33:18;;;;;;;2.58;0.73;;;12.00;99.90;;;10.35;100.00;104169.78;5031988;28;20047;-77
2021/08/12 04:35:44;;;;;;;3.50;1.20;;;12.40;99.90;;;10.76;100.00;104285.25;5032197;28;20481;-78
2021/08/12 04:38:11;;;;;;;4.03;2.65;;;13.20;99.90;;;11.71;100.00;104282.44;5032416;28;20125;-78
2021/08/12 04:40:38;;;;;;;1.88;1.20;;;14.40;99.90;;;12.72;98.56;104295.09;5032144;28;20063;-79
2021/08/12 04:43:05;;;;;;;1.85;0.88;;;15.60;99.90;;;13.71;91.82;104318.03;5032138;28;20044;-77
2021/08/12 04:45:31;;;;;;;1.00;0.90;;;16.80;99.90;;;14.60;85.22;104299.94;5033009;28;20047;-78
2021/08/12 04:48:04;;;;;;;1.52;0.50;;;17.80;99.90;;;15.42;80.69;104300.16;5015851;28;20112;-78
2021/08/12 04:50:34;;;;;;;0.80;0.60;;;18.70;99.90;;;16.18;77.17;104378.19;5033325;28;20029;-78
2021/08/12 04:53:00;;;;;;;1.60;1.00;;;19.50;99.90;;;16.74;74.55;104330.41;5033499;28;20104;-78
2021/08/12 04:55:27;;;;;;;2.42;1.58;;;20.20;99.90;;;17.36;72.08;104346.25;5033721;28;20025;-79
2021/08/12 04:57:53;;;;;;;3.42;1.85;;;20.90;99.90;;;17.71;70.63;104430.00;5016909;28;20358;-78
2021/08/12 05:00:19;;;;;;;6.75;2.53;;;21.50;99.90;;;18.38;68.98;104394.06;5032416;28;20033;-78
2021/08/12 05:02:45;;;;;;;5.03;2.97;;;22.00;99.90;;;18.82;67.71;104373.50;5050867;28;20071;-79
2021/08/12 05:05:11;;;;;;;5.50;3.13;;;22.50;99.90;;;19.57;65.90;104389.44;5039769;28;20400;-78
2021/08/12 05:07:38;;;;;;;10.77;3.53;;;23.20;99.90;;;20.08;64.59;104343.44;5032090;28;20021;-78
2021/08/12 05:10:06;;;;;;;6.65;3.25;;;23.60;99.90;;;20.33;63.99;104278.47;5041241;28;20029;-78
2021/08/12 05:12:32;;;;;;;8.25;3.80;;;23.70;99.90;;;20.58;63.63;104272.34;5017037;28;20025;-78
2021/08/12 05:14:59;;;;;;;7.13;3.20;;;24.10;99.90;;;21.11;62.84;104325.91;5024678;28;20500;-80
2021/08/12 05:17:26;;;;;;;5.82;3.33;;;24.70;99.90;;;21.65;60.52;104308.81;5023488;28;20027;-78
2021/08/12 05:19:52;;;;;;;8.60;3.78;;;25.20;99.90;;;22.11;61.07;104282.91;5046916;28;20116;-79
2021/08/12 05:22:23;;;;;;;8.82;4.28;;;25.30;99.90;;;22.30;60.63;104250.88;5028555;28;22525;-78
2021/08/12 05:24:49;;;;;;;9.57;4.28;;;25.50;99.90;;;22.93;56.96;104250.88;5025717;28;20055;-79
2021/08/12 05:27:16;;;;;;;5.53;4.22;;;25.70;99.90;;;23.42;55.20;104263.13;5024048;28;20064;-79
2021/08/12 05:29:42;;;;;;;8.43;4.43;;;25.40;99.90;;;23.78;54.98;104240.84;5016068;28;20475;-76
2021/08/12 05:32:09;;;;;;;6.68;4.70;;;25.20;99.90;;;23.47;56.15;104172.34;5024482;28;20501;-76
2021/08/12 05:34:36;;;;;;;7.32;4.70;;;25.80;99.90;;;23.80;55.18;104222.81;5031618;28;20075;-76
2021/08/12 05:37:02;;;;;;;5.90;4.40;;;26.60;99.90;;;24.15;54.64;104238.13;5032981;28;20025;-77
2021/08/12 05:39:28;;;;;;;7.70;4.68;;;27.20;99.90;;;24.51;54.80;104250.75;5001696;28;20096;-76
2021/08/12 05:41:54;;;;;;;6.50;4.93;;;27.60;99.90;;;24.72;53.18;104220.97;5028786;28;20033;-77
2021/08/12 05:44:20;;;;;;;6.60;5.20;;;26.70;99.90;;;24.73;52.47;104182.25;5019057;28;20115;-76
2021/08/12 05:46:47;;;;;;;6.15;4.85;;;26.70;99.90;;;24.95;52.00;104196.38;5028167;28;20440;-77
2021/08/12 05:49:13;;;;;;;7.40;5.10;;;26.50;99.90;;;24.93;52.52;104279.13;5014823;28;20028;-76
2021/08/12 05:51:39;;;;;;;7.95;4.95;;;26.30;99.90;;;25.51;50.42;104326.47;5031101;28;20067;-76
2021/08/12 05:54:06;;;;;;;7.97;5.15;;;26.30;99.90;;;25.40;50.63;104196.69;5032108;28;20036;-76
2021/08/12 05:56:35;;;;;;;10.73;5.50;;;25.80;99.90;;;25.12;52.23;104218.88;5030480;28;20442;-77
2021/08/12 05:59:01;;;;;;;8.57;4.97;;;26.30;99.90;;;25.44;50.69;104192.81;5023788;28;20389;-78
2021/08/12 06:01:28;;;;;;;8.02;4.53;;;27.30;99.90;;;25.87;50.16;104185.00;5030514;28;20040;-76
2021/08/12 06:03:55;;;;;;;8.45;4.75;;;28.70;99.90;;;26.74;48.91;104224.09;5030073;28;20061;-77
2021/08/12 06:06:21;;;;;;;7.50;4.70;;;28.80;99.90;;;27.25;47.04;104238.06;5021770;28;20041;-76
2021/08/12 06:08:47;;;;;;;5.55;4.70;;;29.70;98.60;;;27.59;46.85;104228.66;5012724;28;20040;-77
2021/08/12 06:11:13;;;;;;;8.13;4.22;;;30.30;98.00;;;28.02;45.88;104223.19;5029857;28;20499;-77
2021/08/12 06:13:39;;;;;;;13.38;4.93;;;30.80;96.90;;;28.47;44.74;104472.25;5030101;28;20072;-78
2021/08/12 06:16:06;;;;;;;8.48;4.15;;;31.00;96.40;;;28.67;42.39;104315.56;5023096;28;20384;-77
2021/08/12 06:18:33;;;;;;;8.57;4.60;;;31.50;93.80;;;28.35;43.16;104315.84;5031335;28;20033;-77
2021/08/12 06:20:59;;;;;;;6.90;4.03;;;30.10;95.80;;;28.33;43.69;104369.28;5030157;28;21088;-75
2021/08/12 06:23:25;;;;;;;11.18;4.32;;;30.80;95.40;;;29.05;42.29;104315.66;5032121;28;20036;-75
2021/08/12 06:25:51;;;;;;;10.02;4.88;;;30.80;95.10;;;29.12;43.28;104230.16;5013603;28;20021;-75
2021/08/12 06:28:17;;;;;;;9.07;4.28;;;31.50;94.90;;;29.27;43.67;104208.31;5029000;28;20087;-76
2021/08/12 06:30:43;;;;;;;6.05;4.40;;;30.80;94.40;;;28.98;43.44;104228.38;5030217;28;20505;-76
2021/08/12 06:33:10;;;;;;;7.82;3.97;;;31.30;94.10;;;29.38;41.97;104335.97;5031130;28;20047;-76
2021/08/12 06:35:36;;;;;;;7.85;4.70;;;31.30;94.30;;;29.61;41.95;104234.75;5031611;28;20040;-76
2021/08/12 06:38:07;;;;;;;10.20;4.07;;;32.10;93.50;;;29.72;41.11;104108.16;5034317;28;20037;-79
2021/08/12 06:40:38;;;;;;;5.55;4.03;;;31.70;93.70;;;29.96;40.69;104067.41;5012887;28;20060;-79
2021/08/12 06:43:04;;;;;;;6.97;3.60;;;32.30;93.40;;;30.06;40.18;104052.09;5019734;28;20354;-74
2021/08/12 06:45:30;;;;;;;8.50;3.90;;;31.60;92.80;;;30.93;38.92;104093.25;5018161;28;20443;-78
2021/08/12 06:47:57;;;;;;;7.30;4.13;;;31.50;93.10;;;30.42;39.47;103974.94;5006118;28;20048;-78
2021/08/12 06:50:24;;;;;;;4.47;3.47;;;31.80;93.10;;;30.58;39.71;103980.00;5008645;28;20033;-77
2021/08/12 06:52:50;;;;;;;10.38;4.00;;;32.00;92.80;;;30.63;40.07;103927.97;5027626;28;20040;-75
2021/08/12 06:55:17;;;;;;;7.75;3.55;;;31.60;92.20;;;30.26;39.49;103844.84;5025173;28;20021;-75
2021/08/12 06:57:43;;;;;;;6.88;2.80;;;30.90;93.50;;;30.69;38.95;103888.50;5033101;28;20389;-75
2021/08/12 07:00:10;;;;;;;5.50;3.33;;;31.90;93.60;;;30.83;38.63;103848.28;5031397;28;20504;-75
2021/08/12 07:02:36;;;;;;;5.22;3.05;;;32.50;91.80;;;31.57;36.81;103922.78;5016711;28;20025;-75
2021/08/12 07:05:02;;;;;;;6.18;3.10;;;31.90;92.10;;;31.95;36.84;103913.09;5035189;28;20477;-77
2021/08/12 07:07:28;;;;;;;4.07;2.60;;;32.70;91.80;;;31.84;36.39;103840.50;5044520;28;20060;-75
2021/08/12 07:09:54;;;;;;;4.88;3.53;;;33.50;91.20;;;32.04;37.14;103836.84;5034135;28;20485;-77
2021/08/12 07:12:20;;;;;;;8.13;3.00;;;33.50;90.10;;;32.39;36.66;103947.28;5018701;28;20037;-77
2021/08/12 07:14:47;;;;;;;5.88;2.60;;;33.60;90.60;;;32.71;35.28;103924.44;5016874;28;20403;-76
2021/08/12 07:17:13;;;;;;;5.38;3.00;;;33.20;88.80;;;32.06;34.87;103978.44;5030804;28;20607;-76
2021/08/12 07:19:39;;;;;;;10.65;3.40;;;31.70;91.00;;;31.27;36.38;103832.75;5033380;28;20115;-76
2021/08/12 07:22:05;;;;;;;4.25;3.47;;;31.20;92.30;;;31.83;36.90;103844.22;5032652;28;20021;-75
2021/08/12 07:24:32;;;;;;;10.48;3.20;;;32.40;91.50;;;32.21;36.58;103843.50;5033771;28;20104;-74
2021/08/12 07:26:58;;;;;;;8.60;3.22;;;31.70;90.80;;;31.81;35.24;103770.78;5048765;28;20029;-75
2021/08/12 07:29:25;;;;;;;5.55;3.30;;;30.80;91.60;;;31.12;36.38;103877.59;5032833;28;20403;-76
2021/08/12 07:31:51;;;;;;;5.78;3.15;;;30.90;92.80;;;31.51;37.30;103847.94;5033011;28;20083;-75
2021/08/12 07:34:18;;;;;;;4.82;2.95;;;31.40;92.10;;;31.89;35.17;103781.84;5006044;28;20090;-77
2021/08/12 07:36:46;;;;;;;6.50;2.95;;;31.50;91.60;;;32.43;35.00;104003.28;5006939;28;20033;-76
2021/08/12 07:39:15;;;;;;;7.20;3.08;;;31.20;91.80;;;32.20;35.38;103909.06;5023982;28;20086;-75
2021/08/12 07:41:43;;;;;;;6.47;3.38;;;31.90;91.70;;;32.93;35.24;103917.84;5030387;28;20440;-76
2021/08/12 07:44:09;;;;;;;4.35;2.65;;;32.40;91.30;;;32.71;35.99;103822.63;5009031;28;20106;-76
2021/08/12 07:46:36;;;;;;;3.63;2.72;;;31.80;91.70;;;32.33;36.42;103748.81;5016039;28;20087;-75
2021/08/12 07:49:02;;;;;;;5.18;2.80;;;32.50;90.10;;;32.84;33.25;103795.91;5030621;28;20525;-75
2021/08/12 07:51:28;;;;;;;4.45;2.72;;;31.80;90.40;;;32.17;34.98;103629.44;5014759;28;20544;-76
2021/08/12 07:53:54;;;;;;;3.88;2.28;;;31.90;89.30;;;32.56;32.60;103590.38;5032035;28;20417;-76
2021/08/12 07:56:22;;;;;;;6.38;3.30;;;31.40;89.80;;;31.34;33.80;103375.72;5032300;28;20048;-76
2021/08/12 07:58:49;;;;;;;12.02;2.95;;;30.40;91.20;;;31.00;35.39;103346.25;5013893;28;20037;-75
2021/08/12 08:01:17;;;;;;;6.05;3.30;;;29.50;91.90;;;30.31;37.77;103471.28;5032962;28;20028;-75
2021/08/12 08:03:44;;;;;;;6.43;2.58;;;30.30;92.60;;;31.52;36.51;103522.06;5032502;28;20044;-76
2021/08/12 08:06:11;;;;;;;5.07;1.88;;;30.90;90.20;;;31.80;32.64;103499.38;5014973;28;22295;-76
2021/08/12 08:08:37;;;;;;;5.18;2.50;;;31.40;88.90;;;31.89;33.25;103424.94;5006504;28;20025;-76
2021/08/12 08:11:03;;;;;;;5.85;2.35;;;31.40;89.00;;;31.82;33.66;103336.66;5007394;28;20076;-75
2021/08/12 08:13:31;;;;;;;4.40;1.90;;;31.90;88.90;;;32.40;32.74;103610.91;5029301;28;20052;-75
2021/08/12 08:15:58;;;;;;;2.97;1.65;;;31.70;86.00;;;31.53;31.97;103320.41;5013687;28;20040;-76
2021/08/12 08:18:25;;;;;;;4.25;2.20;;;30.80;86.80;;;30.65;32.76;103221.72;5031384;28;20449;-75
2021/08/12 08:20:51;;;;;;;3.78;1.85;;;29.70;85.40;;;29.83;33.23;103326.06;5030879;28;20028;-76
2021/08/12 08:23:17;;;;;;;5.18;1.88;;;28.70;90.00;;;28.74;35.86;103084.09;4997458;28;20036;-75
2021/08/12 08:25:43;;;;;;;6.25;1.67;;;28.80;90.40;;;29.42;36.04;103121.56;5015573;28;20033;-74
2021/08/12 08:28:10;;;;;;;3.97;2.03;;;28.70;90.90;;;29.59;36.65;103122.72;5029390;28;20108;-75
2021/08/12 08:30:38;;;;;;;2.17;1.52;;;29.10;89.60;;;29.47;34.54;103040.56;5031812;28;20500;-75
2021/08/12 08:33:05;;;;;;;2.63;1.67;;;29.30;86.70;;;29.52;33.34;103111.56;5030852;28;20390;-76
2021/08/12 08:35:32;;;;;;;3.08;1.60;;;28.90;88.70;;;29.00;35.23;103024.84;5030336;28;20029;-76
2021/08/12 08:37:59;;;;;;;4.35;1.40;;;29.20;90.00;;;29.33;33.65;103036.41;5022362;28;21076;-75
2021/08/12 08:40:26;;;;;;;4.00;1.85;;;29.50;87.90;;;29.78;34.80;103070.34;5031128;28;20384;-75
2021/08/12 08:42:52;;;;;;;1.75;1.50;;;29.50;85.00;;;29.27;33.34;102995.44;5014561;28;20473;-75
2021/08/12 08:45:28;;;;;;;3.72;1.40;;;29.60;86.60;;;29.56;34.13;103063.28;5031749;28;20041;-75
2021/08/12 08:47:57;;;;;;;;;;;29.80;88.10;;;29.77;32.28;103269.56;5045288;28;20029;-75
2021/08/12 08:50:31;;;;;;;10.32;1.88;;;29.70;84.20;;;28.80;34.89;103063.75;5047178;28;19913;-75
2021/08/12 08:52:59;;;;;;;3.25;1.42;;;29.50;90.50;;;28.93;36.28;103077.06;5045634;28;20052;-75
2021/08/12 08:55:26;;;;;;;4.43;2.13;;;29.60;90.00;;;29.11;38.16;103056.47;5012936;28;20079;-75
2021/08/12 08:57:58;;;;;;;7.85;2.10;;;29.60;90.00;;;27.52;39.71;102814.78;5030670;28;20111;-75
2021/08/12 09:00:28;;;;;;;5.32;2.10;;;28.80;90.40;;;26.56;42.15;102729.19;5029234;28;20029;-77
2021/08/12 09:03:10;;;;;;;5.38;1.92;;;28.40;92.10;;;26.59;42.69;102751.41;4987901;28;20025;-77
2021/08/12 09:05:37;;;;;;;4.28;2.10;;;28.10;92.80;;;26.15;46.69;102706.44;4999644;28;20118;-77
2021/08/12 09:08:19;;;;;;;4.32;2.20;;;27.70;92.80;;;25.94;46.16;102706.34;4992853;28;20069;-78
2021/08/12 09:11:03;;;;;;;5.57;2.15;;;27.90;92.60;;;26.38;44.32;102753.16;5011209;28;20028;-77
2021/08/12 09:13:30;;;;;;;7.13;2.20;;;27.60;93.10;;;26.18;45.17;102734.03;4998666;28;20062;-77
2021/08/12 09:16:30;;;;;;;4.95;2.28;;;27.80;93.50;;;26.37;46.21;102736.09;4993504;28;20504;-77
2021/08/12 09:19:22;;;;;;;7.80;2.20;;;27.70;93.50;;;26.56;43.36;102740.00;4989725;28;20544;-77
2021/08/12 09:21:59;;;;;;;5.75;2.40;;;27.60;92.90;;;26.92;42.04;102783.84;4996226;28;20040;-77
2021/08/12 09:25:10;;;;;;;5.55;2.30;;;27.70;94.50;;;26.70;43.91;102736.16;4976722;28;20488;-78
2021/08/12 09:27:37;;;;;;;4.40;2.53;;;27.70;94.80;;;25.23;46.65;102500.81;4999414;28;20496;-77
2021/08/12 09:30:19;;;;;;;4.97;2.97;;;27.20;96.70;;;26.00;49.83;102670.75;4981336;28;20496;-77
2021/08/12 09:33:05;;;;;;;8.25;3.35;;;26.90;96.00;;;25.39;51.50;102603.72;5006253;28;20066;-76
2021/08/12 09:36:07;;;;;;;4.72;2.38;;;26.80;95.30;;;25.40;48.05;102621.63;5017453;28;20057;-77
2021/08/12 09:38:43;;;;;;;9.55;3.00;;;26.40;96.10;;;24.85;49.53;102545.97;4989115;28;20044;-77
2021/08/12 09:41:15;;;;;;;5.70;2.40;;;26.30;96.70;;;25.45;48.98;103433.91;5011073;28;20032;-76
2021/08/12 09:44:36;;;;;;;10.07;2.50;;;26.50;95.60;;;26.21;43.53;103291.00;4991486;28;20022;-77
2021/08/12 09:47:10;;;;;;;20.85;5.10;;;26.80;94.90;;;26.49;43.71;103611.31;4984189;28;20047;-77
2021/08/12 09:49:49;;;;;;;23.83;3.92;;;27.00;94.00;;;26.58;43.91;103492.69;4989740;28;20035;-77
2021/08/12 09:52:37;;;;;;;72.68;8.15;;;27.40;93.40;;;26.94;43.37;103371.19;5007014;28;20037;-77
2021/08/12 09:55:18;;;;;;;5.20;2.40;;;27.80;93.30;;;27.50;40.92;103328.13;4987982;28;20033;-77
2021/08/12 09:57:55;;;;;;;5.22;2.05;;;27.90;92.10;;;27.37;43.57;103224.56;4997188;28;20090;-77
2021/08/12 10:00:48;;;;;;;3.70;1.95;;;27.90;93.00;;;26.70;45.08;103112.59;5001045;28;20021;-77
2021/08/12 10:03:32;;;;;;;2.15;1.77;;;27.70;94.30;;;27.16;42.72;103171.16;4998680;28;20052;-77
2021/08/12 10:06:22;;;;;;;3.63;1.65;;;28.00;94.10;;;27.32;42.21;103141.09;4983704;28;20105;-77
2021/08/12 10:08:52;;;;;;;6.35;2.05;;;27.70;93.10;;;25.82;44.42;102960.97;5005608;28;20699;-77
2021/08/12 10:11:28;;;;;;;5.68;1.90;;;27.00;91.50;;;25.65;41.67;102962.25;5020574;28;20056;-76
2021/08/12 10:13:59;;;;;;;4.65;2.03;;;26.70;91.90;;;25.20;42.62;102908.94;4994095;28;20056;-76
2021/08/12 10:16:31;;;;;;;5.57;1.38;;;26.50;93.00;;;25.25;42.93;102978.69;5031391;28;20044;-77
2021/08/12 10:19:00;;;;;;;6.32;1.90;;;26.60;94.30;;;25.73;42.85;103016.50;5029235;28;20538;-77